createdAt,value
2017-12-28T00:00:06.915Z,8.70
2017-12-28T00:02:34.550Z,7.90
2017-12-28T00:05:02.142Z,6.33
2017-12-28T00:07:29.742Z,3.70
2017-12-28T00:09:57.295Z,4.90
2017-12-28T00:12:24.902Z,3.37
2017-12-28T00:14:52.489Z,3.20
2017-12-28T00:17:20.836Z,2.87
2017-12-28T00:19:48.452Z,3.37
2017-12-28T00:22:16.033Z,2.80
2017-12-28T00:24:43.609Z,2.13
2017-12-28T00:27:11.189Z,2.33
2017-12-28T00:29:38.748Z,4.90
2017-12-28T00:32:06.393Z,2.40
2017-12-28T00:34:33.997Z,2.67
2017-12-28T00:37:01.497Z,2.60
2017-12-28T00:39:29.260Z,2.10
2017-12-28T00:41:56.910Z,2.13
2017-12-28T00:44:24.419Z,3.00
2017-12-28T00:46:51.996Z,2.27
2017-12-28T00:49:19.612Z,2.47
2017-12-28T00:51:47.193Z,2.37
2017-12-28T00:54:14.755Z,2.63
2017-12-28T00:56:42.330Z,1.60
2017-12-28T00:59:09.906Z,2.53
2017-12-28T01:01:37.528Z,4.50
2017-12-28T01:04:05.125Z,2.60
2017-12-28T01:06:32.704Z,3.03
2017-12-28T01:09:01.365Z,4.60
2017-12-28T01:11:28.951Z,2.00
2017-12-28T01:13:57.288Z,1.80
2017-12-28T01:16:24.933Z,2.43
2017-12-28T01:18:52.587Z,1.90
2017-12-28T01:21:20.132Z,3.97
2017-12-28T01:23:47.709Z,3.97
2017-12-28T01:26:15.249Z,3.40
2017-12-28T01:28:42.813Z,2.70
2017-12-28T01:31:10.421Z,4.00
2017-12-28T01:33:38.001Z,2.03
2017-12-28T01:36:05.573Z,6.07
2017-12-28T01:38:33.941Z,5.70
2017-12-28T01:41:01.498Z,2.77
2017-12-28T01:43:29.093Z,2.73
2017-12-28T01:45:56.666Z,5.20
2017-12-28T01:48:24.222Z,8.90
2017-12-28T01:50:51.810Z,3.27
2017-12-28T01:53:19.373Z,2.33
2017-12-28T01:55:46.957Z,3.60
2017-12-28T01:58:14.525Z,3.40
2017-12-28T02:00:42.124Z,6.77
2017-12-28T02:03:09.677Z,7.10
2017-12-28T02:05:38.011Z,2.33
2017-12-28T02:08:05.578Z,8.40
2017-12-28T02:10:33.181Z,3.67
2017-12-28T02:13:01.497Z,6.00
2017-12-28T02:15:29.071Z,2.47
2017-12-28T02:17:56.783Z,4.50
2017-12-28T02:20:24.340Z,4.27
2017-12-28T02:22:51.960Z,10.33
2017-12-28T02:25:19.541Z,10.03
2017-12-28T02:27:47.097Z,2.43
2017-12-28T02:30:14.670Z,4.40
2017-12-28T02:32:42.249Z,5.60
2017-12-28T02:35:09.808Z,12.40
2017-12-28T02:37:37.376Z,3.27
2017-12-28T02:40:04.944Z,3.70
2017-12-28T02:42:32.496Z,4.90
2017-12-28T02:45:00.132Z,9.13
2017-12-28T02:47:28.551Z,6.20
2017-12-28T02:49:56.137Z,7.70
2017-12-28T02:52:23.697Z,9.33
2017-12-28T02:54:51.265Z,11.63
2017-12-28T02:57:18.948Z,10.87
2017-12-28T02:59:46.516Z,13.10
2017-12-28T03:02:14.824Z,8.37
2017-12-28T03:04:42.405Z,12.13
2017-12-28T03:07:11.296Z,18.80
2017-12-28T03:09:38.919Z,11.03
2017-12-28T03:12:07.261Z,11.40
2017-12-28T03:14:34.888Z,9.40
2017-12-28T03:17:02.622Z,8.57
2017-12-28T03:19:30.944Z,11.93
2017-12-28T03:21:58.522Z,9.93
2017-12-28T03:24:26.076Z,12.57
2017-12-28T03:26:53.648Z,7.40
2017-12-28T03:29:21.225Z,12.87
2017-12-28T03:31:48.813Z,9.47
2017-12-28T03:34:17.120Z,5.57
2017-12-28T03:36:44.690Z,12.10
2017-12-28T03:39:12.262Z,14.23
2017-12-28T03:41:39.829Z,9.47
2017-12-28T03:44:07.383Z,10.80
2017-12-28T03:46:35.087Z,10.37
2017-12-28T03:49:03.432Z,16.90
2017-12-28T03:51:31.029Z,10.57
2017-12-28T03:53:58.577Z,9.13
2017-12-28T03:56:27.066Z,7.20
2017-12-28T03:58:55.393Z,19.67
2017-12-28T04:01:22.977Z,14.93
2017-12-28T04:03:50.573Z,10.33
2017-12-28T04:06:19.207Z,13.63
2017-12-28T04:08:46.769Z,13.47
2017-12-28T04:11:14.341Z,12.80
2017-12-28T04:13:41.916Z,11.37
2017-12-28T04:16:09.486Z,13.93
2017-12-28T04:18:37.074Z,17.10
2017-12-28T04:21:05.477Z,19.43
2017-12-28T04:23:33.021Z,8.67
2017-12-28T04:26:00.601Z,10.40
2017-12-28T04:28:28.148Z,11.87
2017-12-28T04:30:55.729Z,11.50
2017-12-28T04:33:23.284Z,13.73
2017-12-28T04:35:50.864Z,11.00
2017-12-28T04:38:18.452Z,7.03
2017-12-28T04:40:46.038Z,9.90
2017-12-28T04:43:13.636Z,22.10
2017-12-28T04:45:41.195Z,13.63
2017-12-28T04:48:08.765Z,14.13
2017-12-28T04:50:36.330Z,9.63
2017-12-28T04:53:03.973Z,11.63
2017-12-28T04:55:31.538Z,14.13
2017-12-28T04:57:59.103Z,13.40
2017-12-28T05:00:26.777Z,12.47
2017-12-28T05:02:54.361Z,9.90
2017-12-28T05:05:22.059Z,10.23
2017-12-28T05:07:49.599Z,9.63
2017-12-28T05:10:17.941Z,13.23
2017-12-28T05:12:45.512Z,10.27
2017-12-28T05:15:13.073Z,9.90
2017-12-28T05:17:40.660Z,11.90
2017-12-28T05:20:08.974Z,16.40
2017-12-28T05:22:36.566Z,8.93
2017-12-28T05:25:04.117Z,7.80
2017-12-28T05:27:31.724Z,9.80
2017-12-28T05:30:00.101Z,12.10
2017-12-28T05:32:28.457Z,10.23
2017-12-28T05:34:56.020Z,9.03
2017-12-28T05:37:23.597Z,5.10
2017-12-28T05:39:52.000Z,16.60
2017-12-28T05:42:19.577Z,9.87
2017-12-28T05:44:47.154Z,20.23
2017-12-28T05:47:14.721Z,12.57
2017-12-28T05:49:42.296Z,12.17
2017-12-28T05:52:09.865Z,18.93
2017-12-28T05:54:37.501Z,15.17
2017-12-28T05:57:05.069Z,13.57
2017-12-28T05:59:32.633Z,12.23
2017-12-28T06:02:00.187Z,7.67
2017-12-28T06:04:27.761Z,18.93
2017-12-28T06:06:55.327Z,7.00
2017-12-28T06:09:23.008Z,19.00
2017-12-28T06:11:51.375Z,12.07
2017-12-28T06:14:18.936Z,7.97
2017-12-28T06:16:46.511Z,16.03
2017-12-28T06:19:14.062Z,8.50
2017-12-28T06:21:41.637Z,6.87
2017-12-28T06:24:09.971Z,8.77
2017-12-28T06:26:37.534Z,13.70
2017-12-28T06:29:05.095Z,18.40
2017-12-28T06:31:32.686Z,11.17
2017-12-28T06:34:00.270Z,9.67
2017-12-28T06:36:28.650Z,21.50
2017-12-28T06:38:56.205Z,6.50
2017-12-28T06:41:24.564Z,10.63
2017-12-28T06:43:52.114Z,8.77
2017-12-28T06:46:19.669Z,9.57
2017-12-28T06:48:47.267Z,9.30
2017-12-28T06:51:15.598Z,13.90
2017-12-28T06:53:43.160Z,22.50
2017-12-28T06:56:10.873Z,15.37
2017-12-28T06:58:39.194Z,13.47
2017-12-28T07:01:06.766Z,9.70
2017-12-28T07:03:34.337Z,11.33
2017-12-28T07:06:01.927Z,13.90
2017-12-28T07:08:30.228Z,13.70
2017-12-28T07:10:57.806Z,13.10
2017-12-28T07:13:26.141Z,10.67
2017-12-28T07:15:54.495Z,16.97
2017-12-28T07:18:22.071Z,10.00
2017-12-28T07:20:49.673Z,7.57
2017-12-28T07:23:17.252Z,14.00
2017-12-28T07:25:44.950Z,7.03
2017-12-28T07:28:12.535Z,14.83
2017-12-28T07:30:40.897Z,15.83
2017-12-28T07:33:08.448Z,11.40
2017-12-28T07:35:36.050Z,17.63
2017-12-28T07:38:03.593Z,11.47
2017-12-28T07:40:31.908Z,11.30
2017-12-28T07:42:59.481Z,20.57
2017-12-28T07:45:27.813Z,19.40
2017-12-28T07:47:56.232Z,12.10
2017-12-28T07:50:23.825Z,13.00
2017-12-28T07:52:57.953Z,7.47
2017-12-28T07:55:25.520Z,19.63
2017-12-28T07:57:53.862Z,8.10
2017-12-28T08:00:21.432Z,18.93
2017-12-28T08:02:49.012Z,11.87
2017-12-28T08:05:17.529Z,9.40
2017-12-28T08:07:45.142Z,17.37
2017-12-28T08:10:12.705Z,7.77
2017-12-28T08:12:40.261Z,12.40
2017-12-28T08:15:07.835Z,8.40
2017-12-28T08:17:35.413Z,19.23
2017-12-28T08:20:03.798Z,12.70
2017-12-28T08:22:32.168Z,12.50
2017-12-28T08:25:00.509Z,10.43
2017-12-28T08:27:28.146Z,12.97
2017-12-28T08:29:55.712Z,19.50
2017-12-28T08:32:24.031Z,16.27
2017-12-28T08:34:51.626Z,32.50
2017-12-28T08:37:19.218Z,16.00
2017-12-28T08:39:46.801Z,26.50
2017-12-28T08:42:14.380Z,18.23
2017-12-28T08:44:42.004Z,32.37
2017-12-28T08:47:09.606Z,29.20
2017-12-28T08:49:37.161Z,16.33
2017-12-28T08:52:04.735Z,20.17
2017-12-28T08:54:33.064Z,25.20
2017-12-28T08:57:00.649Z,24.77
2017-12-28T08:59:28.252Z,23.63
2017-12-28T09:01:56.641Z,21.47
2017-12-28T09:04:24.967Z,25.13
2017-12-28T09:06:52.644Z,24.33
2017-12-28T09:09:20.218Z,28.43
2017-12-28T09:11:47.794Z,21.03
2017-12-28T09:14:15.353Z,35.23
2017-12-28T09:16:43.714Z,28.67
2017-12-28T09:19:11.277Z,34.30
2017-12-28T09:21:39.608Z,25.10
2017-12-28T09:24:07.209Z,30.80
2017-12-28T09:26:34.761Z,29.70
2017-12-28T09:29:02.352Z,27.60
2017-12-28T09:31:30.703Z,23.80
2017-12-28T09:33:58.278Z,27.07
2017-12-28T09:36:26.608Z,21.17
2017-12-28T09:38:54.187Z,22.70
2017-12-28T09:41:21.760Z,21.00
2017-12-28T09:43:49.338Z,21.13
2017-12-28T09:46:17.709Z,19.90
2017-12-28T09:48:45.314Z,19.87
2017-12-28T09:51:12.891Z,27.50
2017-12-28T09:53:40.477Z,17.97
2017-12-28T09:56:08.085Z,27.40
2017-12-28T09:58:36.405Z,24.10
2017-12-28T10:01:03.996Z,23.10
2017-12-28T10:03:31.580Z,25.53
2017-12-28T10:05:59.164Z,18.23
2017-12-28T10:08:26.729Z,22.80
2017-12-28T10:10:54.335Z,20.17
2017-12-28T10:13:22.676Z,24.43
2017-12-28T10:15:50.304Z,26.07
2017-12-28T10:18:18.641Z,19.30
2017-12-28T10:20:46.238Z,26.83
2017-12-28T10:23:14.563Z,27.83
2017-12-28T10:25:42.158Z,30.13
2017-12-28T10:28:09.760Z,26.40
2017-12-28T10:30:37.351Z,24.23
2017-12-28T10:33:04.938Z,23.00
2017-12-28T10:35:32.594Z,26.00
2017-12-28T10:38:00.186Z,28.77
2017-12-28T10:40:28.525Z,27.20
2017-12-28T10:42:56.112Z,25.03
2017-12-28T10:45:24.469Z,22.30
2017-12-28T10:47:52.078Z,24.63
2017-12-28T10:50:20.376Z,18.87
2017-12-28T10:52:47.993Z,20.23
2017-12-28T10:55:15.567Z,20.37
2017-12-28T10:57:43.921Z,24.30
2017-12-28T11:00:11.507Z,30.60
2017-12-28T11:02:39.828Z,24.67
2017-12-28T11:05:07.470Z,25.13
2017-12-28T11:07:35.037Z,19.10
2017-12-28T11:10:02.621Z,33.93
2017-12-28T11:12:30.208Z,23.63
2017-12-28T11:14:57.799Z,21.67
2017-12-28T11:17:26.141Z,26.00
2017-12-28T11:19:53.741Z,18.67
2017-12-28T11:22:24.836Z,19.27
2017-12-28T11:24:52.412Z,19.97
2017-12-28T11:27:19.973Z,18.07
2017-12-28T11:29:47.541Z,18.53
2017-12-28T11:32:15.245Z,15.50
2017-12-28T11:34:42.808Z,20.00
2017-12-28T11:37:10.388Z,19.33
2017-12-28T11:39:37.958Z,15.23
2017-12-28T11:42:05.585Z,20.27
2017-12-28T11:44:33.166Z,20.10
2017-12-28T11:47:01.506Z,12.97
2017-12-28T11:49:36.208Z,15.07
2017-12-28T11:52:06.657Z,17.90
2017-12-28T11:54:41.200Z,11.97
2017-12-28T11:57:12.717Z,17.70
2017-12-28T11:59:40.262Z,16.00
2017-12-28T12:02:07.839Z,14.23
2017-12-28T12:04:40.957Z,11.70
2017-12-28T12:07:12.325Z,18.17
2017-12-28T12:09:45.559Z,16.10
2017-12-28T12:12:13.227Z,12.90
2017-12-28T12:14:40.820Z,11.73
2017-12-28T12:17:09.138Z,13.47
2017-12-28T12:19:36.729Z,15.53
2017-12-28T12:22:04.345Z,12.13
2017-12-28T12:24:31.972Z,9.43
2017-12-28T12:27:00.333Z,10.60
2017-12-28T12:29:28.037Z,6.50
2017-12-28T12:31:55.648Z,10.10
2017-12-28T12:34:23.217Z,9.27
2017-12-28T12:36:50.827Z,13.03
2017-12-28T12:39:19.166Z,10.90
2017-12-28T12:41:46.741Z,9.93
2017-12-28T12:44:15.081Z,22.43
2017-12-28T12:46:42.670Z,23.00
2017-12-28T12:49:10.233Z,14.50
2017-12-28T12:51:37.825Z,13.83
2017-12-28T12:54:05.401Z,9.50
2017-12-28T12:56:33.015Z,14.67
2017-12-28T12:59:00.610Z,15.20
2017-12-28T13:01:28.183Z,15.40
2017-12-28T13:03:55.783Z,9.60
2017-12-28T13:06:23.372Z,12.63
2017-12-28T13:08:51.713Z,6.40
2017-12-28T13:11:19.262Z,9.07
2017-12-28T13:13:46.837Z,12.60
2017-12-28T13:16:14.430Z,8.83
2017-12-28T13:18:42.041Z,12.40
2017-12-28T13:21:09.742Z,13.13
2017-12-28T13:23:44.328Z,18.17
2017-12-28T13:26:11.982Z,15.33
2017-12-28T13:28:39.569Z,15.13
2017-12-28T13:31:07.160Z,13.53
2017-12-28T13:33:34.721Z,18.57
2017-12-28T13:36:04.244Z,25.17
2017-12-28T13:38:41.020Z,12.03
2017-12-28T13:41:08.720Z,9.57
2017-12-28T13:43:36.327Z,15.90
2017-12-28T13:46:03.900Z,12.10
2017-12-28T13:48:32.254Z,11.87
2017-12-28T13:50:59.828Z,13.00
2017-12-28T13:56:03.665Z,17.73
2017-12-28T13:58:32.006Z,14.83
2017-12-28T14:00:59.571Z,9.23
2017-12-28T14:03:27.151Z,9.83
2017-12-28T14:05:54.802Z,9.47
2017-12-28T14:08:22.406Z,12.33
2017-12-28T14:10:49.965Z,15.20
2017-12-28T14:13:17.541Z,9.60
2017-12-28T14:15:45.112Z,7.63
2017-12-28T14:18:12.763Z,10.43
2017-12-28T14:20:40.406Z,15.33
2017-12-28T14:23:08.009Z,18.13
2017-12-28T14:25:35.613Z,11.50
2017-12-28T14:28:03.945Z,8.90
2017-12-28T14:30:31.521Z,14.27
2017-12-28T14:32:59.088Z,17.67
2017-12-28T14:35:26.737Z,16.00
2017-12-28T14:37:54.311Z,16.20
2017-12-28T14:40:21.893Z,12.27
2017-12-28T14:42:49.645Z,10.20
2017-12-28T14:45:17.240Z,9.80
2017-12-28T14:47:44.796Z,8.80
2017-12-28T14:50:12.390Z,18.40
2017-12-28T14:52:39.957Z,17.83
2017-12-28T14:55:07.570Z,10.43
2017-12-28T14:57:35.884Z,7.67
2017-12-28T15:00:03.478Z,8.60
2017-12-28T15:02:31.036Z,12.13
2017-12-28T15:04:58.633Z,12.83
2017-12-28T15:07:26.983Z,12.47
2017-12-28T15:09:55.377Z,11.23
2017-12-28T15:12:22.942Z,7.27
2017-12-28T15:14:50.517Z,8.97
2017-12-28T15:17:19.114Z,10.23
2017-12-28T15:19:46.714Z,15.33
2017-12-28T15:22:14.412Z,6.83
2017-12-28T15:24:42.000Z,9.23
2017-12-28T15:27:09.561Z,10.23
2017-12-28T15:29:37.148Z,6.87
2017-12-28T15:32:04.805Z,18.40
2017-12-28T15:34:32.365Z,7.77
2017-12-28T15:36:59.963Z,17.43
2017-12-28T15:39:27.516Z,15.50
2017-12-28T15:41:55.103Z,13.83
2017-12-28T15:44:23.462Z,14.43
2017-12-28T15:46:51.085Z,13.53
2017-12-28T15:49:18.658Z,12.20
2017-12-28T15:51:46.242Z,15.57
2017-12-28T15:54:14.416Z,13.53
2017-12-28T15:56:42.653Z,13.70
2017-12-28T15:59:10.282Z,13.17
2017-12-28T16:01:38.674Z,7.83
2017-12-28T16:04:07.027Z,11.80
2017-12-28T16:06:34.634Z,11.37
2017-12-28T16:09:02.200Z,10.70
2017-12-28T16:11:30.089Z,14.13
2017-12-28T16:13:57.654Z,14.37
2017-12-28T16:16:25.213Z,10.23
2017-12-28T16:18:52.774Z,9.57
2017-12-28T16:21:20.355Z,16.73
2017-12-28T16:23:47.964Z,14.23
2017-12-28T16:26:15.590Z,10.43
2017-12-28T16:28:43.185Z,11.30
2017-12-28T16:31:10.761Z,12.43
2017-12-28T16:33:38.349Z,16.03
2017-12-28T16:36:05.913Z,10.33
2017-12-28T16:38:33.526Z,11.20
2017-12-28T16:41:01.107Z,16.43
2017-12-28T16:43:29.463Z,10.17
2017-12-28T16:45:57.023Z,11.20
2017-12-28T16:48:24.582Z,15.63
2017-12-28T16:50:52.205Z,25.40
2017-12-28T16:53:19.795Z,8.10
2017-12-28T16:55:48.201Z,13.60
2017-12-28T16:58:15.821Z,14.23
2017-12-28T17:00:43.385Z,10.60
2017-12-28T17:03:10.990Z,14.33
2017-12-28T17:05:39.312Z,17.00
2017-12-28T17:08:06.897Z,16.80
2017-12-28T17:10:35.257Z,20.33
2017-12-28T17:13:02.901Z,8.50
2017-12-28T17:15:30.494Z,15.40
2017-12-28T17:17:58.070Z,7.97
2017-12-28T17:20:25.673Z,15.10
2017-12-28T17:22:53.253Z,15.53
2017-12-28T17:25:20.854Z,12.10
2017-12-28T17:27:49.319Z,16.00
2017-12-28T17:30:17.684Z,13.63
2017-12-28T17:32:45.290Z,13.73
2017-12-28T17:35:12.854Z,31.80
2017-12-28T17:37:40.525Z,17.00
2017-12-28T17:40:08.120Z,14.33
2017-12-28T17:42:35.747Z,19.80
2017-12-28T17:45:03.350Z,12.00
2017-12-28T17:47:30.982Z,15.57
2017-12-28T17:49:59.314Z,11.00
2017-12-28T17:52:27.718Z,12.40
2017-12-28T17:54:55.290Z,11.37
2017-12-28T17:57:22.849Z,12.00
2017-12-28T17:59:50.449Z,18.20
2017-12-28T18:02:18.016Z,13.63
2017-12-28T18:04:45.655Z,13.10
2017-12-28T18:07:13.231Z,12.23
2017-12-28T18:09:40.800Z,21.70
2017-12-28T18:12:08.346Z,21.60
2017-12-28T18:14:35.942Z,12.90
2017-12-28T18:17:04.276Z,18.23
2017-12-28T18:19:31.877Z,22.23
2017-12-28T18:22:00.228Z,17.40
2017-12-28T18:24:27.797Z,22.03
2017-12-28T18:26:55.373Z,18.47
2017-12-28T18:29:22.995Z,21.20
2017-12-28T18:31:50.687Z,17.70
2017-12-28T18:34:19.047Z,10.47
2017-12-28T18:36:46.711Z,17.27
2017-12-28T18:39:14.275Z,13.40
2017-12-28T18:41:41.855Z,17.03
2017-12-28T18:44:09.432Z,19.17
2017-12-28T18:46:37.864Z,14.87
2017-12-28T18:49:05.479Z,14.50
2017-12-28T18:51:33.967Z,13.13
2017-12-28T18:54:01.551Z,19.33
2017-12-28T18:56:29.353Z,17.33
2017-12-28T18:58:57.160Z,21.40
2017-12-28T19:01:24.760Z,15.70
2017-12-28T19:03:52.338Z,25.70
2017-12-28T19:06:20.033Z,15.80
2017-12-28T19:08:48.486Z,19.07
2017-12-28T19:11:16.353Z,20.50
2017-12-28T19:13:44.757Z,21.87
2017-12-28T19:16:12.902Z,15.53
2017-12-28T19:18:40.835Z,16.60
2017-12-28T19:21:08.950Z,18.63
2017-12-28T19:23:36.613Z,19.47
2017-12-28T19:26:04.559Z,16.23
2017-12-28T19:28:32.985Z,18.47
2017-12-28T19:31:00.592Z,27.10
2017-12-28T19:33:29.647Z,19.83
2017-12-28T19:35:58.371Z,16.83
2017-12-28T19:38:25.965Z,17.27
2017-12-28T19:40:53.725Z,14.93
2017-12-28T19:43:21.929Z,16.53
2017-12-28T19:45:49.609Z,18.60
2017-12-28T19:48:17.960Z,19.23
2017-12-28T19:50:45.534Z,21.00
2017-12-28T19:53:13.138Z,20.33
2017-12-28T19:55:40.737Z,21.47
2017-12-28T19:58:08.517Z,19.37
2017-12-28T20:00:37.081Z,18.00
2017-12-28T20:03:05.694Z,24.83
2017-12-28T20:05:33.553Z,20.83
2017-12-28T20:08:01.392Z,19.70
2017-12-28T20:10:31.176Z,17.63
2017-12-28T20:12:59.056Z,20.80
2017-12-28T20:15:26.711Z,17.20
2017-12-28T20:17:54.533Z,21.77
2017-12-28T20:20:22.966Z,20.17
2017-12-28T20:22:50.522Z,18.17
2017-12-28T20:25:18.103Z,21.13
2017-12-28T20:27:45.698Z,16.87
2017-12-28T20:30:13.240Z,18.50
2017-12-28T20:32:41.532Z,20.83
2017-12-28T20:35:10.005Z,13.90
2017-12-28T20:37:38.547Z,14.40
2017-12-28T20:40:06.117Z,22.20
2017-12-28T20:42:34.382Z,17.43
2017-12-28T20:45:02.110Z,16.73
2017-12-28T20:47:29.670Z,11.53
2017-12-28T20:49:57.298Z,17.47
2017-12-28T20:52:25.562Z,16.10
2017-12-28T20:54:53.890Z,17.67
2017-12-28T20:57:22.309Z,20.20
2017-12-28T20:59:51.402Z,17.93
2017-12-28T21:02:19.831Z,18.03
2017-12-28T21:04:49.324Z,30.80
2017-12-28T21:07:17.013Z,22.53
2017-12-28T21:09:45.377Z,18.23
2017-12-28T21:12:13.648Z,19.83
2017-12-28T21:14:41.320Z,15.40
2017-12-28T21:17:08.951Z,18.77
2017-12-28T21:19:36.549Z,13.40
2017-12-28T21:22:04.128Z,17.50
2017-12-28T21:24:33.072Z,11.10
2017-12-28T21:27:01.328Z,14.00
2017-12-28T21:29:29.030Z,15.33
2017-12-28T21:31:57.116Z,17.90
2017-12-28T21:34:25.353Z,14.67
2017-12-28T21:36:53.004Z,13.77
2017-12-28T21:39:21.217Z,23.60
2017-12-28T21:41:49.491Z,14.00
2017-12-28T21:44:17.852Z,16.50
2017-12-28T21:46:46.095Z,20.90
2017-12-28T21:49:14.573Z,20.40
2017-12-28T21:51:42.892Z,19.10
2017-12-28T21:54:11.033Z,16.97
2017-12-28T21:56:39.322Z,15.20
2017-12-28T21:59:07.639Z,17.37
2017-12-28T22:01:35.275Z,15.83
2017-12-28T22:04:03.378Z,24.30
2017-12-28T22:06:31.029Z,13.87
2017-12-28T22:09:04.285Z,20.60
2017-12-28T22:11:31.916Z,21.43
2017-12-28T22:13:59.482Z,15.90
2017-12-28T22:16:27.851Z,18.40
2017-12-28T22:18:55.419Z,22.93
2017-12-28T22:21:23.835Z,18.80
2017-12-28T22:24:00.241Z,17.63
2017-12-28T22:26:28.716Z,19.57
2017-12-28T22:28:56.310Z,17.03
2017-12-28T22:31:23.887Z,31.23
2017-12-28T22:33:52.249Z,17.93
2017-12-28T22:36:20.597Z,24.67
2017-12-28T22:38:50.075Z,21.93
2017-12-28T22:41:20.216Z,20.03
2017-12-28T22:43:47.801Z,20.53
2017-12-28T22:46:15.376Z,17.33
2017-12-28T22:48:43.742Z,16.80
2017-12-28T22:51:11.321Z,17.03
2017-12-28T22:53:39.763Z,14.33
2017-12-28T22:56:07.345Z,14.27
2017-12-28T22:58:34.915Z,12.13
2017-12-28T23:01:02.514Z,13.10
2017-12-28T23:03:30.103Z,15.17
2017-12-28T23:05:57.696Z,18.93
2017-12-28T23:08:25.261Z,10.30
2017-12-28T23:10:53.620Z,16.67
2017-12-28T23:13:21.206Z,18.97
2017-12-28T23:15:48.800Z,14.93
2017-12-28T23:18:16.382Z,15.87
2017-12-28T23:20:43.962Z,19.77
2017-12-28T23:23:11.569Z,15.37
2017-12-28T23:25:39.903Z,17.83
2017-12-28T23:28:07.486Z,16.43
2017-12-28T23:30:35.070Z,14.17
2017-12-28T23:33:03.437Z,16.67
2017-12-28T23:35:31.780Z,24.80
2017-12-28T23:37:59.356Z,11.73
2017-12-28T23:40:26.929Z,12.03
2017-12-28T23:42:55.390Z,16.20
2017-12-28T23:45:22.984Z,15.33
2017-12-28T23:47:51.346Z,14.50
2017-12-28T23:50:18.973Z,19.30
2017-12-28T23:52:46.548Z,12.70
2017-12-28T23:55:14.147Z,13.90
2017-12-28T23:57:42.489Z,19.33
